createdAt,value
2023-05-22T00:01:56.723Z,10.88
2023-05-22T00:06:58.678Z,9.52
2023-05-22T00:12:00.539Z,9.93
2023-05-22T00:17:02.375Z,9.35
2023-05-22T00:22:09.520Z,9.98
2023-05-22T00:27:11.574Z,9.52
2023-05-22T00:32:13.204Z,10.00
2023-05-22T00:37:14.889Z,10.00
2023-05-22T00:42:17.192Z,10.68
2023-05-22T00:47:21.285Z,11.25
2023-05-22T00:52:23.424Z,11.65
2023-05-22T00:57:25.854Z,12.38
2023-05-22T01:02:29.187Z,14.15
2023-05-22T01:07:30.929Z,12.77
2023-05-22T01:12:50.628Z,12.63
2023-05-22T01:23:22.956Z,13.35
2023-05-22T01:29:12.449Z,13.90
2023-05-22T01:34:19.418Z,13.88
2023-05-22T01:39:22.795Z,12.57
2023-05-22T01:44:25.239Z,13.10
2023-05-22T01:49:28.458Z,13.52
2023-05-22T01:54:39.880Z,13.00
2023-05-22T01:59:49.622Z,13.45
2023-05-22T02:05:03.956Z,13.48
2023-05-22T02:10:10.469Z,13.70
2023-05-22T02:15:12.762Z,13.55
2023-05-22T02:20:15.785Z,13.88
2023-05-22T02:25:21.452Z,13.75
2023-05-22T02:30:23.295Z,14.60
2023-05-22T02:35:26.552Z,15.45
2023-05-22T02:40:28.526Z,15.13
2023-05-22T02:45:31.338Z,13.07
2023-05-22T02:50:33.000Z,13.30
2023-05-22T02:55:34.803Z,12.80
2023-05-22T03:00:38.260Z,11.70
2023-05-22T03:05:41.133Z,12.75
2023-05-22T03:10:44.061Z,11.95
2023-05-22T03:15:45.713Z,10.93
2023-05-22T03:20:50.421Z,12.13
2023-05-22T03:25:52.457Z,12.25
2023-05-22T03:30:54.627Z,11.90
2023-05-22T03:36:01.297Z,12.10
2023-05-22T03:41:03.177Z,11.65
2023-05-22T03:46:05.166Z,11.50
2023-05-22T03:51:10.017Z,11.60
2023-05-22T03:56:11.880Z,12.10
2023-05-22T04:01:13.857Z,11.90
2023-05-22T04:06:15.691Z,11.80
2023-05-22T04:11:20.188Z,11.48
2023-05-22T04:16:22.436Z,11.55
2023-05-22T04:21:24.764Z,13.18
2023-05-22T04:26:29.702Z,12.93
2023-05-22T04:31:33.325Z,13.98
2023-05-22T04:36:35.958Z,14.35
2023-05-22T04:41:38.238Z,15.15
2023-05-22T04:46:40.661Z,14.88
2023-05-22T04:51:42.898Z,14.85
2023-05-22T04:56:44.828Z,14.57
2023-05-22T05:01:48.376Z,16.33
2023-05-22T05:06:50.049Z,16.40
2023-05-22T05:11:53.060Z,17.20
2023-05-22T05:16:54.942Z,16.23
2023-05-22T05:21:56.611Z,16.90
2023-05-22T05:26:59.614Z,17.48
2023-05-22T05:32:01.704Z,18.58
2023-05-22T05:37:12.894Z,17.95
2023-05-22T05:42:14.993Z,17.92
2023-05-22T05:47:18.301Z,17.35
2023-05-22T05:52:20.253Z,16.83
2023-05-22T05:57:23.381Z,18.80
2023-05-22T06:02:26.766Z,16.50
2023-05-22T06:07:32.176Z,16.85
2023-05-22T06:12:34.944Z,17.55
2023-05-22T06:17:37.619Z,19.23
2023-05-22T06:22:40.238Z,18.67
2023-05-22T06:27:42.980Z,17.58
2023-05-22T06:32:46.971Z,17.02
2023-05-22T06:37:49.884Z,16.02
2023-05-22T06:42:53.038Z,16.75
2023-05-22T06:48:35.140Z,17.73
2023-05-22T06:54:06.777Z,18.23
2023-05-22T06:59:10.622Z,18.65
2023-05-22T07:04:32.542Z,18.60
2023-05-22T07:09:56.607Z,18.80
2023-05-22T07:15:00.231Z,19.40
2023-05-22T07:20:03.588Z,18.40
2023-05-22T07:25:09.528Z,19.10
2023-05-22T07:30:11.963Z,19.80
2023-05-22T07:35:15.521Z,19.95
2023-05-22T07:40:19.531Z,17.58
2023-05-22T07:45:21.822Z,18.08
2023-05-22T07:50:26.663Z,20.95
2023-05-22T07:55:28.569Z,18.20
2023-05-22T08:00:31.229Z,16.75
2023-05-22T08:05:32.924Z,20.63
2023-05-22T08:10:52.194Z,21.58
2023-05-22T08:16:00.138Z,22.25
2023-05-22T08:21:02.878Z,20.50
2023-05-22T08:26:06.075Z,23.98
2023-05-22T08:31:09.826Z,14.95
2023-05-22T08:36:11.507Z,14.40
2023-05-22T08:41:13.851Z,11.98
2023-05-22T08:46:16.322Z,11.73
2023-05-22T08:51:19.964Z,11.88
2023-05-22T08:56:23.166Z,12.90
2023-05-22T09:01:25.073Z,11.20
2023-05-22T09:06:29.018Z,11.00
2023-05-22T09:11:30.828Z,11.85
2023-05-22T09:16:32.627Z,9.23
2023-05-22T09:21:36.952Z,7.40
2023-05-22T09:26:40.603Z,11.30
2023-05-22T09:31:43.378Z,12.88
2023-05-22T09:36:46.604Z,12.88
2023-05-22T09:41:51.159Z,10.77
2023-05-22T09:46:54.670Z,12.52
2023-05-22T09:51:57.577Z,14.57
2023-05-22T09:57:00.689Z,11.85
2023-05-22T10:02:02.875Z,10.82
2023-05-22T10:07:05.111Z,11.30
2023-05-22T10:12:10.850Z,13.00
2023-05-22T10:17:12.893Z,12.88
2023-05-22T10:22:20.878Z,13.32
2023-05-22T10:27:22.558Z,11.65
2023-05-22T10:32:35.582Z,15.45
2023-05-22T10:37:53.370Z,14.77
2023-05-22T10:43:04.054Z,11.43
2023-05-22T10:48:07.996Z,11.77
2023-05-22T10:53:26.829Z,10.30
2023-05-22T10:58:28.548Z,10.93
2023-05-22T11:04:00.354Z,13.45
2023-05-22T11:09:26.564Z,13.38
2023-05-22T11:14:29.165Z,10.48
2023-05-22T11:19:30.884Z,8.52
2023-05-22T11:24:36.925Z,9.63
2023-05-22T11:29:44.524Z,7.82
2023-05-22T11:34:52.426Z,8.32
2023-05-22T11:40:04.791Z,9.23
2023-05-22T11:45:07.081Z,8.82
2023-05-22T11:50:12.975Z,9.05
2023-05-22T11:55:14.708Z,11.95
2023-05-22T12:00:17.197Z,7.85
2023-05-22T12:05:25.155Z,7.93
2023-05-22T12:10:26.907Z,9.73
2023-05-22T12:15:28.540Z,9.95
2023-05-22T12:20:31.280Z,8.90
2023-05-22T12:25:37.332Z,7.93
2023-05-22T12:30:42.501Z,9.65
2023-05-22T12:35:44.171Z,9.20
2023-05-22T12:40:45.806Z,8.48
2023-05-22T12:45:47.497Z,8.27
2023-05-22T12:50:52.250Z,7.80
2023-05-22T12:55:53.909Z,8.20
2023-05-22T13:00:55.740Z,8.35
2023-05-22T13:05:57.373Z,8.13
2023-05-22T13:10:59.308Z,5.80
2023-05-22T13:16:01.078Z,7.47
2023-05-22T13:21:02.804Z,8.25
2023-05-22T13:26:04.539Z,7.43
2023-05-22T13:31:06.285Z,7.70
2023-05-22T13:36:08.119Z,6.38
2023-05-22T13:41:09.855Z,9.10
2023-05-22T13:46:11.646Z,8.45
2023-05-22T13:51:13.407Z,8.93
2023-05-22T13:56:15.078Z,7.78
2023-05-22T14:01:16.740Z,7.78
2023-05-22T14:06:19.397Z,8.85
2023-05-22T14:11:22.429Z,6.75
2023-05-22T14:16:24.097Z,6.85
2023-05-22T14:21:25.750Z,5.65
2023-05-22T14:26:27.388Z,6.30
2023-05-22T14:31:29.453Z,6.80
2023-05-22T14:36:31.300Z,8.20
2023-05-22T14:41:34.391Z,8.23
2023-05-22T14:46:36.372Z,8.50
2023-05-22T14:51:38.661Z,7.60
2023-05-22T14:56:40.789Z,6.65
2023-05-22T15:01:42.688Z,6.32
2023-05-22T15:06:46.040Z,6.38
2023-05-22T15:11:49.800Z,5.00
2023-05-22T15:16:51.581Z,6.53
2023-05-22T15:21:54.623Z,7.28
2023-05-22T15:26:56.927Z,7.70
2023-05-22T15:31:58.677Z,5.82
2023-05-22T15:37:00.415Z,5.85
2023-05-22T15:42:06.396Z,6.38
2023-05-22T15:47:08.897Z,5.63
2023-05-22T15:52:10.602Z,7.22
2023-05-22T15:57:12.250Z,6.43
2023-05-22T16:02:14.976Z,5.10
2023-05-22T16:07:20.241Z,6.65
2023-05-22T16:12:22.288Z,8.20
2023-05-22T16:17:24.065Z,7.00
2023-05-22T16:22:36.352Z,5.53
2023-05-22T16:27:51.946Z,9.68
2023-05-22T16:32:53.765Z,8.90
2023-05-22T16:37:55.524Z,10.20
2023-05-22T16:42:57.251Z,11.38
2023-05-22T16:47:59.028Z,10.93
2023-05-22T16:53:00.949Z,10.43
2023-05-22T16:58:02.720Z,10.48
2023-05-22T17:03:04.481Z,10.60
2023-05-22T17:08:06.678Z,11.02
2023-05-22T17:13:08.734Z,10.23
2023-05-22T17:18:11.653Z,10.68
2023-05-22T17:23:14.243Z,12.63
2023-05-22T17:28:16.551Z,12.05
2023-05-22T17:33:19.632Z,16.20
2023-05-22T17:38:21.961Z,14.80
2023-05-22T17:43:23.926Z,14.95
2023-05-22T17:48:27.465Z,14.75
2023-05-22T17:53:34.280Z,13.82
2023-05-22T17:58:36.535Z,12.65
2023-05-22T18:03:38.234Z,10.93
2023-05-22T18:08:40.070Z,12.20
2023-05-22T18:13:41.834Z,11.80
2023-05-22T18:18:43.551Z,12.80
2023-05-22T18:23:45.178Z,11.20
2023-05-22T18:28:49.580Z,11.35
2023-05-22T18:33:52.406Z,10.77
2023-05-22T18:38:54.046Z,10.88
2023-05-22T18:43:55.763Z,10.57
2023-05-22T18:48:57.398Z,11.82
2023-05-22T18:53:59.323Z,13.00
2023-05-22T18:59:01.073Z,12.15
2023-05-22T19:04:06.034Z,12.13
2023-05-22T19:09:12.057Z,13.47
2023-05-22T19:14:14.388Z,13.80
2023-05-22T19:19:16.280Z,11.85
2023-05-22T19:24:17.967Z,11.13
2023-05-22T19:29:19.858Z,12.82
2023-05-22T19:34:21.565Z,13.52
2023-05-22T19:39:26.074Z,13.27
2023-05-22T19:44:30.698Z,15.68
2023-05-22T19:49:36.781Z,15.75
2023-05-22T19:54:38.842Z,13.75
2023-05-22T19:59:40.629Z,10.55
2023-05-22T20:04:43.501Z,9.50
2023-05-22T20:09:45.294Z,7.80
2023-05-22T20:14:47.182Z,6.95
2023-05-22T20:19:51.229Z,7.05
2023-05-22T20:24:53.359Z,6.90
2023-05-22T20:29:56.590Z,6.63
2023-05-22T20:34:59.796Z,6.95
2023-05-22T20:40:09.402Z,6.38
2023-05-22T20:45:13.570Z,5.57
2023-05-22T20:50:17.105Z,6.28
2023-05-22T20:55:20.915Z,8.40
2023-05-22T21:00:22.910Z,9.02
2023-05-22T21:05:25.818Z,8.43
2023-05-22T21:10:27.505Z,7.25
2023-05-22T21:15:29.094Z,7.10
2023-05-22T21:20:30.833Z,5.32
2023-05-22T21:25:32.573Z,7.05
2023-05-22T21:30:34.566Z,6.20
2023-05-22T21:35:36.515Z,6.90
2023-05-22T21:40:40.547Z,9.20
2023-05-22T21:45:42.464Z,9.05
2023-05-22T21:50:44.259Z,9.98
2023-05-22T21:55:45.902Z,10.00
2023-05-22T22:00:49.837Z,8.82
2023-05-22T22:05:51.707Z,8.85
2023-05-22T22:10:53.357Z,8.80
2023-05-22T22:15:57.130Z,10.65
2023-05-22T22:21:02.121Z,10.57
2023-05-22T22:26:03.836Z,9.73
2023-05-22T22:31:05.505Z,10.30
2023-05-22T22:36:07.376Z,26.42
2023-05-22T22:41:10.591Z,9.07
2023-05-22T22:46:12.290Z,9.63
2023-05-22T22:51:14.530Z,7.60
2023-05-22T22:56:16.234Z,8.75
2023-05-22T23:01:19.207Z,8.05
2023-05-22T23:06:21.106Z,8.73
2023-05-22T23:11:23.358Z,7.90
2023-05-22T23:16:25.857Z,8.50
2023-05-22T23:21:27.625Z,8.75
2023-05-22T23:26:29.247Z,9.77
2023-05-22T23:31:32.327Z,8.75
2023-05-22T23:36:34.199Z,7.05
2023-05-22T23:41:35.871Z,8.10
2023-05-22T23:46:39.744Z,8.63
2023-05-22T23:51:41.673Z,9.50
2023-05-22T23:56:45.032Z,11.27
